This is the latest recevied weather packets stored in our database for station/object GW1549. If no packets are shown the sender has not sent any weather packets the latest 10 day(s).
| Time | Temp. | Humidity | Pressure | Rain* | Wind** | Luminosity | Snow |
|---|---|---|---|---|---|---|---|
| 1777620987 | 2.22° C | 99% | 1009.1 hPa | 0 mm | - | - | - |
| 1777618453 | 2.22° C | 99% | 1009.1 hPa | 0 mm | - | - | - |
| 1777615948 | 2.22° C | 98% | 1009.8 hPa | 0 mm | - | - | - |
| 1777613420 | 3.33° C | 97% | 1010.1 hPa | 0 mm | - | - | - |
| 1777605170 | 5° C | 94% | 1010.8 hPa | 0 mm | - | - | - |
| 1777604801 | 4.44° C | 93% | 1010.8 hPa | 0 mm | - | - | - |
| 1777602278 | 6.11° C | 90% | 1010.8 hPa | 0 mm | - | - | - |
| 1777600495 | 7.22° C | 87% | 1010.4 hPa | 0 mm | - | - | - |
| 1777598332 | 7.78° C | 81% | 1010.4 hPa | 0 mm | - | - | - |
| 1777595807 | 10° C | 67% | 1009.8 hPa | 0 mm | - | - | - |
| 1777592921 | 11.67° C | 65% | 1009.4 hPa | 0 mm | - | - | - |
| 1777590413 | 13.33° C | 59% | 1009.8 hPa | 0 mm | - | - | - |
| 1777588951 | 13.33° C | 58% | 1009.4 hPa | 0 mm | - | - | - |
| 1777584619 | 13.33° C | 61% | 1009.8 hPa | 0 mm | - | - | - |
| 1777583566 | 14.44° C | 59% | 1009.8 hPa | 0 mm | - | - | - |
| 1777573462 | 12.22° C | 74% | 1010.1 hPa | 0 mm | - | - | - |
| 1777573122 | 11.67° C | 72% | 1010.1 hPa | 0 mm | - | - | - |
| 1777568074 | 10.56° C | 78% | 1010.4 hPa | 0 mm | - | - | - |
| 1777564853 | 10.56° C | 74% | 1010.4 hPa | 0 mm | - | - | - |
| 1777564461 | 10.56° C | 74% | 1010.4 hPa | 0 mm | - | - | - |
| 1777555118 | 8.33° C | 81% | 1009.4 hPa | 0 mm | - | - | - |
| 1777554031 | 7.78° C | 85% | 1009.1 hPa | 0 mm | - | - | - |
| 1777552218 | 7.22° C | 87% | 1009.1 hPa | 0 mm | - | - | - |
| 1777547553 | 6.11° C | 92% | 1007.7 hPa | 0 mm | - | - | - |
| 1777543972 | 6.67° C | 89% | 1007.1 hPa | 0 mm | - | - | - |
* Rain since midnight (hover to see other rain measurements)
** Current wind speed in m/s (hover to see current wind gust speed)